sensor_id;sensor_type;location;lat;lon;timestamp;pressure;altitude;pressure_sealevel;temperature;humidity
62103;BME280;48077;48.104;11.702;2023-07-20T00:00:16;95286.69;;;20.35;54.40
62103;BME280;48077;48.104;11.702;2023-07-20T00:07:40;95301.22;;;20.25;54.86
62103;BME280;48077;48.104;11.702;2023-07-20T00:10:04;95290.69;;;20.24;55.35
62103;BME280;48077;48.104;11.702;2023-07-20T00:12:28;95284.84;;;20.16;55.11
62103;BME280;48077;48.104;11.702;2023-07-20T00:14:51;95279.53;;;20.11;54.84
62103;BME280;48077;48.104;11.702;2023-07-20T00:17:16;95293.78;;;20.17;54.79
62103;BME280;48077;48.104;11.702;2023-07-20T00:19:40;95289.25;;;20.12;54.68
62103;BME280;48077;48.104;11.702;2023-07-20T00:22:03;95293.56;;;20.13;54.82
62103;BME280;48077;48.104;11.702;2023-07-20T00:24:27;95287.16;;;20.09;55.00
62103;BME280;48077;48.104;11.702;2023-07-20T00:26:51;95299.38;;;20.07;55.42
62103;BME280;48077;48.104;11.702;2023-07-20T00:29:14;95298.38;;;20.02;55.65
62103;BME280;48077;48.104;11.702;2023-07-20T00:31:37;95296.25;;;19.99;55.51
62103;BME280;48077;48.104;11.702;2023-07-20T00:34:01;95304.38;;;19.99;55.00
62103;BME280;48077;48.104;11.702;2023-07-20T00:36:24;95300.75;;;19.90;55.11
62103;BME280;48077;48.104;11.702;2023-07-20T00:38:47;95297.81;;;19.87;55.30
62103;BME280;48077;48.104;11.702;2023-07-20T00:41:11;95306.94;;;19.91;55.26
62103;BME280;48077;48.104;11.702;2023-07-20T00:43:34;95309.66;;;19.91;55.34
62103;BME280;48077;48.104;11.702;2023-07-20T00:45:57;95307.25;;;19.89;55.66
62103;BME280;48077;48.104;11.702;2023-07-20T00:48:21;95303.00;;;19.83;55.74
62103;BME280;48077;48.104;11.702;2023-07-20T00:50:45;95298.78;;;19.77;55.84
62103;BME280;48077;48.104;11.702;2023-07-20T00:53:10;95304.41;;;19.80;56.04
62103;BME280;48077;48.104;11.702;2023-07-20T00:55:34;95310.94;;;19.79;56.16
62103;BME280;48077;48.104;11.702;2023-07-20T00:57:58;95307.34;;;19.84;56.25
62103;BME280;48077;48.104;11.702;2023-07-20T01:00:22;95315.16;;;19.86;56.08
62103;BME280;48077;48.104;11.702;2023-07-20T01:02:46;95298.22;;;19.80;56.20
62103;BME280;48077;48.104;11.702;2023-07-20T01:05:10;95308.34;;;19.88;56.25
62103;BME280;48077;48.104;11.702;2023-07-20T01:07:39;95318.66;;;19.86;56.86
62103;BME280;48077;48.104;11.702;2023-07-20T01:10:12;95329.22;;;19.88;56.46
62103;BME280;48077;48.104;11.702;2023-07-20T01:12:43;95324.88;;;19.87;57.26
62103;BME280;48077;48.104;11.702;2023-07-20T01:15:09;95319.75;;;19.85;58.80
62103;BME280;48077;48.104;11.702;2023-07-20T01:17:33;95307.22;;;19.75;61.30
62103;BME280;48077;48.104;11.702;2023-07-20T01:19:56;95311.00;;;19.74;63.94
62103;BME280;48077;48.104;11.702;2023-07-20T01:30:46;95314.22;;;19.57;63.99
62103;BME280;48077;48.104;11.702;2023-07-20T01:33:15;95314.31;;;19.52;63.63
62103;BME280;48077;48.104;11.702;2023-07-20T01:35:41;95303.25;;;19.49;64.31
62103;BME280;48077;48.104;11.702;2023-07-20T01:38:08;95298.88;;;19.34;64.13
62103;BME280;48077;48.104;11.702;2023-07-20T01:40:32;95296.56;;;19.27;63.77
62103;BME280;48077;48.104;11.702;2023-07-20T01:42:56;95313.28;;;19.29;64.24
62103;BME280;48077;48.104;11.702;2023-07-20T01:45:19;95312.03;;;19.21;65.09
62103;BME280;48077;48.104;11.702;2023-07-20T01:47:42;95315.03;;;19.20;65.09
62103;BME280;48077;48.104;11.702;2023-07-20T01:50:07;95318.84;;;19.19;64.85
62103;BME280;48077;48.104;11.702;2023-07-20T01:52:30;95314.50;;;19.18;65.28
62103;BME280;48077;48.104;11.702;2023-07-20T01:54:54;95316.34;;;19.23;64.53
62103;BME280;48077;48.104;11.702;2023-07-20T01:57:17;95309.34;;;19.21;64.74
62103;BME280;48077;48.104;11.702;2023-07-20T01:59:40;95316.66;;;19.21;64.06
62103;BME280;48077;48.104;11.702;2023-07-20T02:02:04;95308.59;;;19.16;63.95
62103;BME280;48077;48.104;11.702;2023-07-20T02:04:27;95319.91;;;19.18;63.96
62103;BME280;48077;48.104;11.702;2023-07-20T02:06:51;95320.81;;;19.13;64.31
62103;BME280;48077;48.104;11.702;2023-07-20T02:09:14;95321.38;;;19.10;64.82
62103;BME280;48077;48.104;11.702;2023-07-20T02:11:37;95316.03;;;19.05;65.16
62103;BME280;48077;48.104;11.702;2023-07-20T02:14:01;95322.84;;;19.03;65.49
62103;BME280;48077;48.104;11.702;2023-07-20T02:16:24;95322.88;;;18.97;65.75
62103;BME280;48077;48.104;11.702;2023-07-20T02:18:47;95316.00;;;18.86;66.08
62103;BME280;48077;48.104;11.702;2023-07-20T02:21:11;95320.81;;;18.89;66.59
62103;BME280;48077;48.104;11.702;2023-07-20T02:23:34;95320.31;;;18.87;66.38
62103;BME280;48077;48.104;11.702;2023-07-20T02:25:57;95324.91;;;18.87;66.63
62103;BME280;48077;48.104;11.702;2023-07-20T02:28:21;95319.06;;;18.79;66.21
62103;BME280;48077;48.104;11.702;2023-07-20T02:30:44;95317.09;;;18.85;65.83
62103;BME280;48077;48.104;11.702;2023-07-20T02:33:08;95313.06;;;18.83;66.44
62103;BME280;48077;48.104;11.702;2023-07-20T02:35:32;95312.03;;;18.78;66.71
62103;BME280;48077;48.104;11.702;2023-07-20T02:37:55;95325.81;;;18.77;67.12
62103;BME280;48077;48.104;11.702;2023-07-20T02:40:18;95330.13;;;18.78;66.70
62103;BME280;48077;48.104;11.702;2023-07-20T02:42:44;95312.28;;;18.77;66.51
62103;BME280;48077;48.104;11.702;2023-07-20T02:45:07;95311.78;;;18.75;66.67
62103;BME280;48077;48.104;11.702;2023-07-20T02:47:31;95310.19;;;18.74;66.86
62103;BME280;48077;48.104;11.702;2023-07-20T02:49:54;95315.66;;;18.69;67.03
62103;BME280;48077;48.104;11.702;2023-07-20T02:52:17;95312.72;;;18.65;67.30
62103;BME280;48077;48.104;11.702;2023-07-20T02:54:41;95310.38;;;18.58;66.82
62103;BME280;48077;48.104;11.702;2023-07-20T02:57:04;95326.00;;;18.61;66.82
62103;BME280;48077;48.104;11.702;2023-07-20T02:59:28;95319.78;;;18.61;67.14
62103;BME280;48077;48.104;11.702;2023-07-20T03:01:52;95331.69;;;18.60;67.25
62103;BME280;48077;48.104;11.702;2023-07-20T03:04:15;95337.44;;;18.53;66.86
62103;BME280;48077;48.104;11.702;2023-07-20T03:06:39;95359.50;;;18.60;67.14
62103;BME280;48077;48.104;11.702;2023-07-20T03:09:03;95361.38;;;18.60;68.48
62103;BME280;48077;48.104;11.702;2023-07-20T03:11:26;95369.28;;;18.56;69.72
62103;BME280;48077;48.104;11.702;2023-07-20T03:13:50;95342.06;;;18.48;71.84
62103;BME280;48077;48.104;11.702;2023-07-20T03:16:17;95346.84;;;18.32;74.49
62103;BME280;48077;48.104;11.702;2023-07-20T03:18:41;95358.00;;;18.20;77.85
62103;BME280;48077;48.104;11.702;2023-07-20T03:21:05;95357.25;;;18.14;77.12
62103;BME280;48077;48.104;11.702;2023-07-20T03:23:29;95367.91;;;18.00;78.92
62103;BME280;48077;48.104;11.702;2023-07-20T03:25:52;95357.19;;;17.90;81.43
62103;BME280;48077;48.104;11.702;2023-07-20T03:28:18;95360.22;;;17.78;82.93
62103;BME280;48077;48.104;11.702;2023-07-20T03:30:41;95360.06;;;17.65;84.69
62103;BME280;48077;48.104;11.702;2023-07-20T03:33:04;95369.00;;;17.55;85.78
62103;BME280;48077;48.104;11.702;2023-07-20T03:35:28;95383.06;;;17.47;86.00
62103;BME280;48077;48.104;11.702;2023-07-20T03:37:51;95393.06;;;17.41;86.97
62103;BME280;48077;48.104;11.702;2023-07-20T03:40:15;95399.34;;;17.31;86.74
62103;BME280;48077;48.104;11.702;2023-07-20T03:42:39;95385.09;;;17.20;86.21
62103;BME280;48077;48.104;11.702;2023-07-20T03:45:03;95388.38;;;17.12;86.48
62103;BME280;48077;48.104;11.702;2023-07-20T03:47:27;95402.13;;;17.06;87.92
62103;BME280;48077;48.104;11.702;2023-07-20T03:49:51;95396.22;;;17.04;89.18
62103;BME280;48077;48.104;11.702;2023-07-20T03:52:14;95384.41;;;16.89;90.36
62103;BME280;48077;48.104;11.702;2023-07-20T03:54:37;95395.72;;;16.91;91.19
62103;BME280;48077;48.104;11.702;2023-07-20T03:57:01;95389.28;;;16.87;92.22
62103;BME280;48077;48.104;11.702;2023-07-20T03:59:24;95389.28;;;16.77;93.41
62103;BME280;48077;48.104;11.702;2023-07-20T04:01:48;95392.53;;;16.74;94.30
62103;BME280;48077;48.104;11.702;2023-07-20T04:04:11;95397.66;;;16.65;95.65
62103;BME280;48077;48.104;11.702;2023-07-20T04:06:34;95396.88;;;16.59;96.55
62103;BME280;48077;48.104;11.702;2023-07-20T04:08:58;95401.19;;;16.55;96.24
62103;BME280;48077;48.104;11.702;2023-07-20T04:11:21;95382.09;;;16.42;96.55
62103;BME280;48077;48.104;11.702;2023-07-20T04:13:45;95404.44;;;16.47;96.79
62103;BME280;48077;48.104;11.702;2023-07-20T04:16:08;95402.00;;;16.46;97.25
62103;BME280;48077;48.104;11.702;2023-07-20T04:18:31;95401.19;;;16.45;97.55
62103;BME280;48077;48.104;11.702;2023-07-20T04:20:55;95401.47;;;16.44;97.59
62103;BME280;48077;48.104;11.702;2023-07-20T04:23:18;95397.72;;;16.45;97.02
62103;BME280;48077;48.104;11.702;2023-07-20T04:25:41;95388.31;;;16.42;97.37
62103;BME280;48077;48.104;11.702;2023-07-20T04:28:06;95396.38;;;16.42;97.73
62103;BME280;48077;48.104;11.702;2023-07-20T04:30:33;95399.06;;;16.42;97.77
62103;BME280;48077;48.104;11.702;2023-07-20T04:32:56;95399.06;;;16.42;97.15
62103;BME280;48077;48.104;11.702;2023-07-20T04:35:48;95399.59;;;16.44;96.92
62103;BME280;48077;48.104;11.702;2023-07-20T04:38:12;95396.63;;;16.41;97.24
62103;BME280;48077;48.104;11.702;2023-07-20T04:40:35;95404.44;;;16.47;96.52
62103;BME280;48077;48.104;11.702;2023-07-20T04:42:58;95403.63;;;16.47;97.08
62103;BME280;48077;48.104;11.702;2023-07-20T04:45:22;95407.38;;;16.51;96.89
62103;BME280;48077;48.104;11.702;2023-07-20T04:47:47;95402.81;;;16.51;96.73
62103;BME280;48077;48.104;11.702;2023-07-20T04:50:10;95409.28;;;16.50;96.95
62103;BME280;48077;48.104;11.702;2023-07-20T04:52:34;95404.97;;;16.49;96.80
62103;BME280;48077;48.104;11.702;2023-07-20T04:54:57;95407.66;;;16.49;96.21
62103;BME280;48077;48.104;11.702;2023-07-20T04:57:23;95407.13;;;16.47;96.78
62103;BME280;48077;48.104;11.702;2023-07-20T04:59:46;95413.06;;;16.44;97.42
62103;BME280;48077;48.104;11.702;2023-07-20T05:02:10;95401.47;;;16.38;97.86
62103;BME280;48077;48.104;11.702;2023-07-20T05:04:33;95417.34;;;16.45;97.74
62103;BME280;48077;48.104;11.702;2023-07-20T05:06:57;95416.28;;;16.46;97.54
62103;BME280;48077;48.104;11.702;2023-07-20T05:09:20;95371.38;;;16.21;98.05
62103;BME280;48077;48.104;11.702;2023-07-20T05:11:43;95413.06;;;16.44;98.48
62103;BME280;48077;48.104;11.702;2023-07-20T05:14:08;95420.59;;;16.52;97.91
62103;BME280;48077;48.104;11.702;2023-07-20T05:16:31;95411.97;;;16.45;98.06
62103;BME280;48077;48.104;11.702;2023-07-20T05:18:55;95420.84;;;16.56;98.07
62103;BME280;48077;48.104;11.702;2023-07-20T05:21:20;95424.59;;;16.60;98.30
62103;BME280;48077;48.104;11.702;2023-07-20T05:23:43;95413.56;;;16.62;98.51
62103;BME280;48077;48.104;11.702;2023-07-20T05:26:08;95428.59;;;16.78;99.12
62103;BME280;48077;48.104;11.702;2023-07-20T05:28:32;95421.34;;;16.84;99.01
62103;BME280;48077;48.104;11.702;2023-07-20T05:30:55;95424.56;;;16.91;98.77
62103;BME280;48077;48.104;11.702;2023-07-20T05:33:19;95423.19;;;16.93;97.65
62103;BME280;48077;48.104;11.702;2023-07-20T05:35:43;95417.84;;;16.88;96.58
62103;BME280;48077;48.104;11.702;2023-07-20T05:38:06;95425.09;;;16.98;96.37
62103;BME280;48077;48.104;11.702;2023-07-20T05:40:30;95411.09;;;16.91;96.49
62103;BME280;48077;48.104;11.702;2023-07-20T05:42:53;95415.41;;;16.92;96.45
62103;BME280;48077;48.104;11.702;2023-07-20T05:45:18;95422.13;;;16.94;96.85
62103;BME280;48077;48.104;11.702;2023-07-20T05:47:42;95425.06;;;17.03;96.27
62103;BME280;48077;48.104;11.702;2023-07-20T05:50:06;95429.34;;;17.09;95.72
62103;BME280;48077;48.104;11.702;2023-07-20T05:52:31;95431.22;;;17.14;94.88
62103;BME280;48077;48.104;11.702;2023-07-20T05:54:55;95435.75;;;17.18;93.93
62103;BME280;48077;48.104;11.702;2023-07-20T05:57:18;95430.38;;;17.24;93.99
62103;BME280;48077;48.104;11.702;2023-07-20T05:59:44;95433.84;;;17.29;93.96
62103;BME280;48077;48.104;11.702;2023-07-20T06:02:07;95429.75;;;17.37;93.51
62103;BME280;48077;48.104;11.702;2023-07-20T06:04:31;95425.47;;;17.36;92.87
62103;BME280;48077;48.104;11.702;2023-07-20T06:06:54;95420.59;;;17.38;91.87
62103;BME280;48077;48.104;11.702;2023-07-20T06:09:18;95416.00;;;17.38;91.66
62103;BME280;48077;48.104;11.702;2023-07-20T06:11:42;95430.22;;;17.54;90.80
62103;BME280;48077;48.104;11.702;2023-07-20T06:14:05;95424.31;;;17.52;90.29
62103;BME280;48077;48.104;11.702;2023-07-20T06:16:29;95439.59;;;17.67;90.07
62103;BME280;48077;48.104;11.702;2023-07-20T06:18:52;95443.56;;;17.75;89.96
62103;BME280;48077;48.104;11.702;2023-07-20T06:21:15;95438.16;;;17.80;88.82
62103;BME280;48077;48.104;11.702;2023-07-20T06:23:39;95436.81;;;17.88;88.56
62103;BME280;48077;48.104;11.702;2023-07-20T06:26:02;95426.75;;;17.93;88.62
62103;BME280;48077;48.104;11.702;2023-07-20T06:28:25;95441.50;;;18.06;87.68
62103;BME280;48077;48.104;11.702;2023-07-20T06:30:49;95428.78;;;18.12;86.67
62103;BME280;48077;48.104;11.702;2023-07-20T06:33:13;95421.53;;;18.07;85.03
62103;BME280;48077;48.104;11.702;2023-07-20T06:35:37;95423.44;;;18.07;83.09
62103;BME280;48077;48.104;11.702;2023-07-20T06:38:01;95430.94;;;18.15;82.46
62103;BME280;48077;48.104;11.702;2023-07-20T06:40:24;95423.97;;;18.09;81.25
62103;BME280;48077;48.104;11.702;2023-07-20T06:42:47;95434.97;;;18.12;81.12
62103;BME280;48077;48.104;11.702;2023-07-20T06:45:11;95438.19;;;18.19;81.17
62103;BME280;48077;48.104;11.702;2023-07-20T06:47:39;95426.81;;;18.23;80.86
62103;BME280;48077;48.104;11.702;2023-07-20T06:50:03;95433.31;;;18.22;81.76
62103;BME280;48077;48.104;11.702;2023-07-20T06:52:26;95435.69;;;18.28;81.84
62103;BME280;48077;48.104;11.702;2023-07-20T06:54:50;95433.50;;;18.30;80.96
62103;BME280;48077;48.104;11.702;2023-07-20T06:57:13;95434.00;;;18.37;80.74
62103;BME280;48077;48.104;11.702;2023-07-20T06:59:37;95424.78;;;18.38;80.06
62103;BME280;48077;48.104;11.702;2023-07-20T07:02:00;95431.19;;;18.48;79.85
62103;BME280;48077;48.104;11.702;2023-07-20T07:04:23;95425.47;;;18.54;77.98
62103;BME280;48077;48.104;11.702;2023-07-20T07:06:47;95439.84;;;18.74;76.74
62103;BME280;48077;48.104;11.702;2023-07-20T07:09:11;95433.78;;;18.87;76.29
62103;BME280;48077;48.104;11.702;2023-07-20T07:11:34;95426.56;;;19.07;75.38
62103;BME280;48077;48.104;11.702;2023-07-20T07:13:58;95421.09;;;19.12;73.29
62103;BME280;48077;48.104;11.702;2023-07-20T07:16:21;95427.59;;;19.11;73.65
62103;BME280;48077;48.104;11.702;2023-07-20T07:18:45;95437.56;;;19.15;71.93
62103;BME280;48077;48.104;11.702;2023-07-20T07:21:09;95436.91;;;19.24;72.36
62103;BME280;48077;48.104;11.702;2023-07-20T07:23:32;95426.56;;;19.07;68.41
62103;BME280;48077;48.104;11.702;2023-07-20T07:25:55;95428.66;;;19.15;68.62
62103;BME280;48077;48.104;11.702;2023-07-20T07:28:19;95435.28;;;19.23;69.71
62103;BME280;48077;48.104;11.702;2023-07-20T07:30:42;95409.09;;;19.23;68.24
62103;BME280;48077;48.104;11.702;2023-07-20T07:33:06;95420.63;;;19.29;67.34
62103;BME280;48077;48.104;11.702;2023-07-20T07:35:29;95428.84;;;19.42;67.69
62103;BME280;48077;48.104;11.702;2023-07-20T07:37:53;95433.22;;;19.57;66.23
62103;BME280;48077;48.104;11.702;2023-07-20T07:40:16;95433.22;;;19.81;65.23
62103;BME280;48077;48.104;11.702;2023-07-20T07:42:39;95433.06;;;19.92;63.88
62103;BME280;48077;48.104;11.702;2023-07-20T07:45:07;95440.66;;;20.09;60.12
62103;BME280;48077;48.104;11.702;2023-07-20T07:47:30;95437.56;;;20.15;61.89
62103;BME280;48077;48.104;11.702;2023-07-20T07:49:53;95424.25;;;20.19;61.00
62103;BME280;48077;48.104;11.702;2023-07-20T07:52:17;95428.06;;;20.18;61.11
62103;BME280;48077;48.104;11.702;2023-07-20T07:54:40;95436.28;;;20.13;61.74
62103;BME280;48077;48.104;11.702;2023-07-20T07:57:04;95443.00;;;20.15;61.47
62103;BME280;48077;48.104;11.702;2023-07-20T07:59:27;95424.78;;;20.21;60.63
62103;BME280;48077;48.104;11.702;2023-07-20T08:01:50;95432.22;;;20.29;61.30
62103;BME280;48077;48.104;11.702;2023-07-20T08:04:14;95431.63;;;20.32;62.19
62103;BME280;48077;48.104;11.702;2023-07-20T08:06:37;95428.75;;;20.42;59.11
62103;BME280;48077;48.104;11.702;2023-07-20T08:09:00;95439.13;;;20.35;60.82
62103;BME280;48077;48.104;11.702;2023-07-20T08:11:25;95438.56;;;20.38;56.74
62103;BME280;48077;48.104;11.702;2023-07-20T08:13:48;95432.28;;;20.24;53.00
62103;BME280;48077;48.104;11.702;2023-07-20T08:16:11;95428.34;;;20.16;53.02
62103;BME280;48077;48.104;11.702;2023-07-20T08:18:35;95435.09;;;20.19;52.80
62103;BME280;48077;48.104;11.702;2023-07-20T08:20:58;95443.88;;;20.43;55.35
62103;BME280;48077;48.104;11.702;2023-07-20T08:23:22;95443.66;;;20.59;56.90
62103;BME280;48077;48.104;11.702;2023-07-20T08:25:45;95443.00;;;20.67;54.91
62103;BME280;48077;48.104;11.702;2023-07-20T08:28:09;95443.09;;;20.76;55.41
62103;BME280;48077;48.104;11.702;2023-07-20T08:30:43;95431.06;;;20.82;55.30
62103;BME280;48077;48.104;11.702;2023-07-20T08:33:06;95429.88;;;20.88;52.67
62103;BME280;48077;48.104;11.702;2023-07-20T08:35:32;95448.53;;;21.03;50.73
62103;BME280;48077;48.104;11.702;2023-07-20T08:37:56;95437.38;;;20.91;49.78
62103;BME280;48077;48.104;11.702;2023-07-20T08:40:20;95441.09;;;20.95;50.83
62103;BME280;48077;48.104;11.702;2023-07-20T08:42:43;95444.44;;;20.92;51.53
62103;BME280;48077;48.104;11.702;2023-07-20T08:45:08;95444.94;;;21.08;52.33
62103;BME280;48077;48.104;11.702;2023-07-20T08:47:32;95433.91;;;21.05;52.06
62103;BME280;48077;48.104;11.702;2023-07-20T08:49:55;95425.66;;;21.10;53.19
62103;BME280;48077;48.104;11.702;2023-07-20T08:52:19;95440.44;;;21.31;51.98
62103;BME280;48077;48.104;11.702;2023-07-20T08:54:42;95442.84;;;21.47;52.03
62103;BME280;48077;48.104;11.702;2023-07-20T08:57:06;95443.22;;;21.68;52.96
62103;BME280;48077;48.104;11.702;2023-07-20T08:59:31;95438.31;;;21.70;49.91
62103;BME280;48077;48.104;11.702;2023-07-20T09:01:56;95437.44;;;21.60;49.67
62103;BME280;48077;48.104;11.702;2023-07-20T09:04:20;95444.94;;;21.50;49.96
62103;BME280;48077;48.104;11.702;2023-07-20T09:06:44;95442.31;;;21.31;49.37
62103;BME280;48077;48.104;11.702;2023-07-20T09:09:07;95433.22;;;21.13;48.90
62103;BME280;48077;48.104;11.702;2023-07-20T09:11:31;95437.91;;;21.07;48.84
62103;BME280;48077;48.104;11.702;2023-07-20T09:14:07;95437.19;;;21.01;50.23
62103;BME280;48077;48.104;11.702;2023-07-20T09:16:31;95439.00;;;20.92;50.30
62103;BME280;48077;48.104;11.702;2023-07-20T09:18:58;95438.31;;;21.00;51.92
62103;BME280;48077;48.104;11.702;2023-07-20T09:21:21;95429.38;;;21.14;50.40
62103;BME280;48077;48.104;11.702;2023-07-20T09:23:45;95433.28;;;21.35;50.04
62103;BME280;48077;48.104;11.702;2023-07-20T09:26:12;95433.59;;;21.48;49.65
62103;BME280;48077;48.104;11.702;2023-07-20T09:28:48;95434.50;;;21.57;47.82
62103;BME280;48077;48.104;11.702;2023-07-20T09:31:16;95421.63;;;21.62;47.98
62103;BME280;48077;48.104;11.702;2023-07-20T09:33:40;95428.97;;;21.62;48.65
62103;BME280;48077;48.104;11.702;2023-07-20T09:36:04;95425.00;;;21.82;46.82
62103;BME280;48077;48.104;11.702;2023-07-20T09:38:27;95419.66;;;21.91;46.27
62103;BME280;48077;48.104;11.702;2023-07-20T09:40:51;95412.00;;;22.15;46.47
62103;BME280;48077;48.104;11.702;2023-07-20T09:43:16;95421.25;;;22.51;44.28
62103;BME280;48077;48.104;11.702;2023-07-20T09:45:40;95419.53;;;22.63;44.59
62103;BME280;48077;48.104;11.702;2023-07-20T09:48:08;95412.97;;;22.64;44.33
62103;BME280;48077;48.104;11.702;2023-07-20T09:50:33;95418.53;;;22.51;44.42
62103;BME280;48077;48.104;11.702;2023-07-20T09:52:56;95417.78;;;22.36;45.29
62103;BME280;48077;48.104;11.702;2023-07-20T09:55:20;95417.84;;;22.45;48.04
62103;BME280;48077;48.104;11.702;2023-07-20T09:57:44;95415.25;;;22.62;45.84
62103;BME280;48077;48.104;11.702;2023-07-20T10:00:08;95416.88;;;22.72;44.57
62103;BME280;48077;48.104;11.702;2023-07-20T10:02:41;95405.88;;;22.77;44.34
62103;BME280;48077;48.104;11.702;2023-07-20T10:05:05;95406.19;;;22.76;45.58
62103;BME280;48077;48.104;11.702;2023-07-20T10:07:33;95410.09;;;22.61;46.42
62103;BME280;48077;48.104;11.702;2023-07-20T10:09:59;95410.84;;;22.53;46.78
62103;BME280;48077;48.104;11.702;2023-07-20T10:12:25;95410.47;;;22.46;45.74
62103;BME280;48077;48.104;11.702;2023-07-20T10:15:10;95400.00;;;22.53;46.12
62103;BME280;48077;48.104;11.702;2023-07-20T10:17:35;95403.09;;;22.69;48.40
62103;BME280;48077;48.104;11.702;2023-07-20T10:20:00;95405.13;;;22.54;44.78
62103;BME280;48077;48.104;11.702;2023-07-20T10:22:27;95406.03;;;22.50;44.41
62103;BME280;48077;48.104;11.702;2023-07-20T10:24:54;95393.31;;;22.59;44.50
62103;BME280;48077;48.104;11.702;2023-07-20T10:27:18;95398.38;;;22.83;44.16
62103;BME280;48077;48.104;11.702;2023-07-20T10:29:42;95386.34;;;22.75;43.18
62103;BME280;48077;48.104;11.702;2023-07-20T10:32:05;95394.44;;;22.98;44.50
62103;BME280;48077;48.104;11.702;2023-07-20T10:34:29;95401.56;;;23.16;44.01
62103;BME280;48077;48.104;11.702;2023-07-20T10:36:53;95386.72;;;23.22;45.06
62103;BME280;48077;48.104;11.702;2023-07-20T10:39:28;95397.00;;;23.52;43.58
62103;BME280;48077;48.104;11.702;2023-07-20T10:42:01;95398.28;;;23.37;43.81
62103;BME280;48077;48.104;11.702;2023-07-20T10:44:26;95388.22;;;23.55;43.59
62103;BME280;48077;48.104;11.702;2023-07-20T10:46:49;95391.44;;;23.74;41.67
62103;BME280;48077;48.104;11.702;2023-07-20T10:49:14;95381.06;;;23.85;41.38
62103;BME280;48077;48.104;11.702;2023-07-20T10:51:48;95392.13;;;23.97;41.30
62103;BME280;48077;48.104;11.702;2023-07-20T10:56:47;95382.53;;;24.09;41.81
62103;BME280;48077;48.104;11.702;2023-07-20T10:59:36;95386.47;;;23.68;41.53
62103;BME280;48077;48.104;11.702;2023-07-20T11:02:06;95375.91;;;23.57;42.72
62103;BME280;48077;48.104;11.702;2023-07-20T11:04:41;95387.06;;;23.38;42.43
62103;BME280;48077;48.104;11.702;2023-07-20T11:07:05;95376.56;;;23.63;43.99
62103;BME280;48077;48.104;11.702;2023-07-20T11:09:34;95380.34;;;23.36;42.67
62103;BME280;48077;48.104;11.702;2023-07-20T11:12:09;95371.44;;;23.04;42.64
62103;BME280;48077;48.104;11.702;2023-07-20T11:14:33;95372.88;;;23.01;44.62
62103;BME280;48077;48.104;11.702;2023-07-20T11:17:10;95366.38;;;23.20;42.35
62103;BME280;48077;48.104;11.702;2023-07-20T11:19:34;95358.78;;;22.99;43.14
62103;BME280;48077;48.104;11.702;2023-07-20T11:21:58;95370.97;;;23.02;43.75
62103;BME280;48077;48.104;11.702;2023-07-20T11:24:22;95367.88;;;22.95;43.57
62103;BME280;48077;48.104;11.702;2023-07-20T11:29:08;95358.72;;;22.82;44.33
62103;BME280;48077;48.104;11.702;2023-07-20T11:31:35;95356.28;;;23.20;43.04
62103;BME280;48077;48.104;11.702;2023-07-20T11:33:59;95358.03;;;23.16;42.92
62103;BME280;48077;48.104;11.702;2023-07-20T11:36:22;95367.63;;;23.05;42.71
62103;BME280;48077;48.104;11.702;2023-07-20T11:38:48;95355.63;;;23.06;43.80
62103;BME280;48077;48.104;11.702;2023-07-20T11:41:14;95349.94;;;23.42;43.47
62103;BME280;48077;48.104;11.702;2023-07-20T11:43:38;95349.28;;;23.37;42.80
62103;BME280;48077;48.104;11.702;2023-07-20T11:46:04;95348.38;;;23.50;43.28
62103;BME280;48077;48.104;11.702;2023-07-20T11:48:28;95348.66;;;23.40;43.01
62103;BME280;48077;48.104;11.702;2023-07-20T11:50:51;95348.19;;;23.29;42.68
62103;BME280;48077;48.104;11.702;2023-07-20T11:53:15;95342.56;;;23.34;42.79
62103;BME280;48077;48.104;11.702;2023-07-20T11:55:42;95339.22;;;23.72;46.17
62103;BME280;48077;48.104;11.702;2023-07-20T11:58:07;95343.28;;;23.92;42.51
62103;BME280;48077;48.104;11.702;2023-07-20T12:00:31;95337.81;;;24.01;42.50
62103;BME280;48077;48.104;11.702;2023-07-20T12:02:55;95325.69;;;24.63;41.28
62103;BME280;48077;48.104;11.702;2023-07-20T12:05:19;95330.28;;;25.10;41.58
62103;BME280;48077;48.104;11.702;2023-07-20T12:07:45;95323.69;;;25.40;40.10
62103;BME280;48077;48.104;11.702;2023-07-20T12:10:11;95313.56;;;25.62;38.03
62103;BME280;48077;48.104;11.702;2023-07-20T12:12:38;95327.78;;;25.97;37.76
62103;BME280;48077;48.104;11.702;2023-07-20T12:15:24;95319.25;;;26.32;37.39
62103;BME280;48077;48.104;11.702;2023-07-20T12:17:51;95304.88;;;26.35;36.25
62103;BME280;48077;48.104;11.702;2023-07-20T12:22:56;95305.56;;;26.78;35.45
62103;BME280;48077;48.104;11.702;2023-07-20T12:25:20;95306.69;;;27.01;35.00
62103;BME280;48077;48.104;11.702;2023-07-20T12:27:44;95309.31;;;27.47;36.54
62103;BME280;48077;48.104;11.702;2023-07-20T12:30:08;95296.47;;;27.63;33.94
62103;BME280;48077;48.104;11.702;2023-07-20T12:32:32;95291.56;;;27.69;33.37
62103;BME280;48077;48.104;11.702;2023-07-20T12:34:56;95297.63;;;27.62;33.78
62103;BME280;48077;48.104;11.702;2023-07-20T12:37:19;95307.03;;;27.37;34.08
62103;BME280;48077;48.104;11.702;2023-07-20T12:39:42;95300.31;;;27.34;33.24
62103;BME280;48077;48.104;11.702;2023-07-20T12:42:07;95299.72;;;27.41;32.67
62103;BME280;48077;48.104;11.702;2023-07-20T12:44:31;95294.03;;;27.46;33.48
62103;BME280;48077;48.104;11.702;2023-07-20T12:46:54;95284.47;;;26.91;33.64
62103;BME280;48077;48.104;11.702;2023-07-20T12:49:19;95284.19;;;26.47;36.51
62103;BME280;48077;48.104;11.702;2023-07-20T12:51:42;95278.84;;;26.50;35.36
62103;BME280;48077;48.104;11.702;2023-07-20T12:54:05;95283.69;;;26.90;34.63
62103;BME280;48077;48.104;11.702;2023-07-20T12:56:29;95281.41;;;27.04;34.14